sensor_id;sensor_type;location;lat;lon;timestamp;pressure;altitude;pressure_sealevel;temperature;humidity
71903;BME280;59778;50.310;18.780;2023-04-04T00:08:26;99488.06;;;0.08;77.05
71903;BME280;59778;50.310;18.780;2023-04-04T00:23:47;99475.50;;;-0.16;77.96
71903;BME280;59778;50.310;18.780;2023-04-04T00:39:08;99476.94;;;-0.35;78.62
71903;BME280;59778;50.310;18.780;2023-04-04T00:54:29;99479.66;;;-0.48;79.70
71903;BME280;59778;50.310;18.780;2023-04-04T01:09:51;99483.19;;;-0.73;80.60
71903;BME280;59778;50.310;18.780;2023-04-04T01:25:13;99473.28;;;-0.83;81.14
71903;BME280;59778;50.310;18.780;2023-04-04T01:40:37;99482.28;;;-0.99;81.33
71903;BME280;59778;50.310;18.780;2023-04-04T01:55:58;99483.78;;;-0.95;81.04
71903;BME280;59778;50.310;18.780;2023-04-04T02:11:20;99489.88;;;-1.05;81.01
71903;BME280;59778;50.310;18.780;2023-04-04T02:26:43;99489.19;;;-1.21;81.47
71903;BME280;59778;50.310;18.780;2023-04-04T02:42:04;99492.00;;;-1.23;81.51
71903;BME280;59778;50.310;18.780;2023-04-04T02:57:25;99482.94;;;-1.20;81.06
71903;BME280;59778;50.310;18.780;2023-04-04T03:12:47;99501.31;;;-1.30;81.01
71903;BME280;59778;50.310;18.780;2023-04-04T03:28:09;99498.44;;;-1.39;82.11
71903;BME280;59778;50.310;18.780;2023-04-04T03:43:31;99499.66;;;-1.58;82.79
71903;BME280;59778;50.310;18.780;2023-04-04T03:58:54;99488.50;;;-1.50;83.49
71903;BME280;59778;50.310;18.780;2023-04-04T04:14:16;99490.63;;;-1.82;84.54
71903;BME280;59778;50.310;18.780;2023-04-04T04:29:38;99481.22;;;-1.87;84.97
71903;BME280;59778;50.310;18.780;2023-04-04T04:45:01;99482.75;;;-1.83;84.24
71903;BME280;59778;50.310;18.780;2023-04-04T05:00:22;99496.16;;;-1.58;83.88
71903;BME280;59778;50.310;18.780;2023-04-04T05:15:48;99495.78;;;-1.39;81.47
71903;BME280;59778;50.310;18.780;2023-04-04T05:31:09;99500.91;;;-1.36;80.47
71903;BME280;59778;50.310;18.780;2023-04-04T05:46:39;99510.59;;;-1.35;79.44
71903;BME280;59778;50.310;18.780;2023-04-04T06:02:00;99511.63;;;-0.99;77.15
71903;BME280;59778;50.310;18.780;2023-04-04T06:17:23;99499.41;;;-0.76;74.70
71903;BME280;59778;50.310;18.780;2023-04-04T06:32:44;99495.84;;;-0.51;72.84
71903;BME280;59778;50.310;18.780;2023-04-04T06:48:05;99487.53;;;0.03;69.42
71903;BME280;59778;50.310;18.780;2023-04-04T07:03:27;99479.25;;;0.42;65.69
71903;BME280;59778;50.310;18.780;2023-04-04T07:18:48;99487.34;;;0.88;63.39
71903;BME280;59778;50.310;18.780;2023-04-04T07:34:09;99496.16;;;1.12;61.53
71903;BME280;59778;50.310;18.780;2023-04-04T07:49:31;99491.97;;;0.86;62.10
71903;BME280;59778;50.310;18.780;2023-04-04T08:04:56;99487.94;;;1.26;60.43
71903;BME280;59778;50.310;18.780;2023-04-04T08:20:17;99484.69;;;0.99;59.95
71903;BME280;59778;50.310;18.780;2023-04-04T08:35:38;99483.56;;;1.25;58.13
71903;BME280;59778;50.310;18.780;2023-04-04T08:50:39;99468.13;;;1.62;56.09
71903;BME280;59778;50.310;18.780;2023-04-04T09:05:43;99455.31;;;2.42;51.67
71903;BME280;59778;50.310;18.780;2023-04-04T09:20:45;99458.50;;;1.93;57.54
71903;BME280;59778;50.310;18.780;2023-04-04T09:36:07;99454.22;;;1.90;55.37
71903;BME280;59778;50.310;18.780;2023-04-04T09:51:11;99438.78;;;2.26;52.50
71903;BME280;59778;50.310;18.780;2023-04-04T10:06:12;99443.91;;;2.61;52.40
71903;BME280;59778;50.310;18.780;2023-04-04T10:21:13;99439.75;;;2.68;51.06
71903;BME280;59778;50.310;18.780;2023-04-04T10:36:43;99431.41;;;3.33;49.92
71903;BME280;59778;50.310;18.780;2023-04-04T10:52:05;99430.34;;;3.15;52.25
71903;BME280;59778;50.310;18.780;2023-04-04T11:07:27;99432.16;;;2.73;50.89
71903;BME280;59778;50.310;18.780;2023-04-04T11:23:20;99421.50;;;3.54;51.90
71903;BME280;59778;50.310;18.780;2023-04-04T11:38:47;99412.88;;;3.91;49.21
71903;BME280;59778;50.310;18.780;2023-04-04T11:54:16;99405.97;;;4.17;50.15
71903;BME280;59778;50.310;18.780;2023-04-04T12:09:37;99402.75;;;3.13;50.53
71903;BME280;59778;50.310;18.780;2023-04-04T12:24:59;99410.69;;;2.94;50.81
71903;BME280;59778;50.310;18.780;2023-04-04T12:40:21;99416.34;;;3.42;50.05
71903;BME280;59778;50.310;18.780;2023-04-04T12:55:46;99421.78;;;2.79;50.67
71903;BME280;59778;50.310;18.780;2023-04-04T13:11:08;99410.59;;;2.95;49.44
71903;BME280;59778;50.310;18.780;2023-04-04T13:26:31;99426.19;;;2.69;49.94
71903;BME280;59778;50.310;18.780;2023-04-04T13:41:52;99426.47;;;3.59;49.80
71903;BME280;59778;50.310;18.780;2023-04-04T13:57:14;99421.81;;;2.48;49.89
71903;BME280;59778;50.310;18.780;2023-04-04T14:12:35;99418.31;;;2.36;49.68
71903;BME280;59778;50.310;18.780;2023-04-04T14:27:57;99401.69;;;2.74;50.21
71903;BME280;59778;50.310;18.780;2023-04-04T14:43:18;99407.94;;;2.43;50.85
71903;BME280;59778;50.310;18.780;2023-04-04T14:58:39;99403.53;;;2.21;50.17
71903;BME280;59778;50.310;18.780;2023-04-04T15:14:01;99387.88;;;2.26;50.47
71903;BME280;59778;50.310;18.780;2023-04-04T15:29:23;99379.84;;;1.94;49.70
71903;BME280;59778;50.310;18.780;2023-04-04T15:44:44;99401.81;;;1.77;51.02
71903;BME280;59778;50.310;18.780;2023-04-04T16:00:06;99391.00;;;1.56;50.91
71903;BME280;59778;50.310;18.780;2023-04-04T16:15:27;99396.84;;;1.28;52.37
71903;BME280;59778;50.310;18.780;2023-04-04T16:30:49;99396.34;;;1.12;53.07
71903;BME280;59778;50.310;18.780;2023-04-04T16:46:11;99391.84;;;0.90;53.73
71903;BME280;59778;50.310;18.780;2023-04-04T17:01:32;99401.06;;;0.86;53.93
71903;BME280;59778;50.310;18.780;2023-04-04T17:16:54;99417.19;;;0.73;54.48
71903;BME280;59778;50.310;18.780;2023-04-04T17:32:20;99425.16;;;0.51;53.65
71903;BME280;59778;50.310;18.780;2023-04-04T17:47:42;99429.81;;;0.36;54.11
71903;BME280;59778;50.310;18.780;2023-04-04T18:03:05;99451.22;;;0.24;55.22
71903;BME280;59778;50.310;18.780;2023-04-04T18:18:29;99453.06;;;0.23;56.18
71903;BME280;59778;50.310;18.780;2023-04-04T18:33:51;99448.69;;;0.22;56.39
71903;BME280;59778;50.310;18.780;2023-04-04T18:49:12;99449.22;;;0.27;57.91
71903;BME280;59778;50.310;18.780;2023-04-04T19:04:34;99454.03;;;0.22;59.44
71903;BME280;59778;50.310;18.780;2023-04-04T19:19:56;99439.59;;;0.25;60.52
71903;BME280;59778;50.310;18.780;2023-04-04T19:35:19;99443.16;;;0.13;60.71
71903;BME280;59778;50.310;18.780;2023-04-04T19:50:41;99434.28;;;-0.12;63.49
71903;BME280;59778;50.310;18.780;2023-04-04T20:21:51;99446.69;;;-0.60;65.16
71903;BME280;59778;50.310;18.780;2023-04-04T20:37:14;99443.09;;;-0.84;68.38
71903;BME280;59778;50.310;18.780;2023-04-04T21:08:42;99444.44;;;-1.16;69.12
71903;BME280;59778;50.310;18.780;2023-04-04T21:24:05;99442.41;;;-1.25;70.29
71903;BME280;59778;50.310;18.780;2023-04-04T21:39:30;99431.13;;;-1.29;70.50
71903;BME280;59778;50.310;18.780;2023-04-04T21:54:51;99418.34;;;-1.76;72.33
71903;BME280;59778;50.310;18.780;2023-04-04T22:10:13;99407.56;;;-1.87;71.87
71903;BME280;59778;50.310;18.780;2023-04-04T22:25:35;99401.91;;;-1.95;72.66
71903;BME280;59778;50.310;18.780;2023-04-04T22:40:58;99403.34;;;-2.04;74.46
71903;BME280;59778;50.310;18.780;2023-04-04T22:56:19;99391.34;;;-2.23;75.67
71903;BME280;59778;50.310;18.780;2023-04-04T23:11:41;99386.44;;;-2.29;76.75
71903;BME280;59778;50.310;18.780;2023-04-04T23:27:03;99374.53;;;-2.51;77.97
71903;BME280;59778;50.310;18.780;2023-04-04T23:42:24;99367.13;;;-2.60;78.60
71903;BME280;59778;50.310;18.780;2023-04-04T23:57:46;99356.50;;;-2.60;78.28
